Time;durP1;ratioP1;P1;durP2;ratioP2;P2;SDS_P1;SDS_P2;PMS_P1;PMS_P2;Temp;Humidity;BMP_temperature;BMP_pressure;BME280_temperature;BME280_humidity;BME280_pressure;Samples;Min_cycle;Max_cycle;Signal;HPM_P1;HPM_P2
2023/01/16 00:01:24;;;;;;;24.90;9.00;;;;;;;-3.14;100.00;97783.46;107167;1275;25416;-69
2023/01/16 00:03:51;;;;;;;32.40;10.30;;;;;;;-3.12;100.00;97782.27;107158;1275;22615;-70
2023/01/16 00:06:19;;;;;;;27.70;9.60;;;;;;;-3.11;100.00;97780.02;107236;1275;22746;-69
2023/01/16 00:08:48;;;;;;;27.20;10.30;;;;;;;-3.09;100.00;97780.17;107130;1275;22533;-70
2023/01/16 00:11:15;;;;;;;23.30;9.40;;;;;;;-3.07;100.00;97775.08;106390;1254;1003324;-69
2023/01/16 00:13:42;;;;;;;18.60;8.10;;;;;;;-3.05;100.00;97775.11;107135;1275;22577;-69
2023/01/16 00:16:10;;;;;;;18.60;7.40;;;;;;;-3.04;100.00;97780.79;106394;1275;1002929;-70
2023/01/16 00:18:37;;;;;;;21.40;7.40;;;;;;;-3.03;100.00;97777.00;107335;1254;22583;-68
2023/01/16 00:21:05;;;;;;;23.80;8.30;;;;;;;-3.03;100.00;97776.04;106432;1275;1003417;-68
2023/01/16 00:23:33;;;;;;;28.40;9.70;;;;;;;-3.04;100.00;97780.31;107154;1275;22523;-68
2023/01/16 00:26:00;;;;;;;25.40;9.40;;;;;;;-3.03;100.00;97775.63;107102;1274;24196;-69
2023/01/16 00:28:27;;;;;;;27.20;9.80;;;;;;;-3.02;100.00;97771.52;107002;1256;25517;-70
2023/01/16 00:30:54;;;;;;;32.90;10.20;;;;;;;-3.01;100.00;97768.95;107166;1275;22662;-70
2023/01/16 00:33:21;;;;;;;30.90;9.90;;;;;;;-3.00;100.00;97767.23;107148;1275;25430;-69
2023/01/16 00:35:49;;;;;;;34.60;10.70;;;;;;;-2.98;100.00;97766.89;107197;1275;22520;-69
2023/01/16 00:38:16;;;;;;;30.00;10.10;;;;;;;-2.96;100.00;97760.48;107276;1275;25299;-69
2023/01/16 00:40:44;;;;;;;35.10;9.80;;;;;;;-2.93;100.00;97758.67;107121;1275;22526;-69
2023/01/16 00:43:11;;;;;;;23.50;9.30;;;;;;;-2.94;100.00;97762.08;107149;1275;24034;-67
2023/01/16 00:45:39;;;;;;;21.30;8.40;;;;;;;-2.96;100.00;97763.39;106475;1275;1002849;-69
2023/01/16 00:48:06;;;;;;;29.30;9.20;;;;;;;-3.00;100.00;97767.05;107200;1275;22532;-70
2023/01/16 00:50:34;;;;;;;24.00;8.70;;;;;;;-3.04;100.00;97774.14;106367;1275;1003642;-68
2023/01/16 00:53:01;;;;;;;25.80;9.10;;;;;;;-3.07;100.00;97771.23;107152;1275;22574;-68
2023/01/16 00:55:28;;;;;;;34.30;10.30;;;;;;;-3.09;100.00;97778.09;107163;1275;24253;-68
2023/01/16 00:57:56;;;;;;;33.50;10.40;;;;;;;-3.09;100.00;97780.60;106328;1275;1002837;-70
2023/01/16 01:00:25;;;;;;;33.20;11.10;;;;;;;-3.09;100.00;97779.80;107096;1275;22619;-70
2023/01/16 01:02:52;;;;;;;34.00;10.30;;;;;;;-3.08;100.00;97776.16;106281;1275;1005006;-69
2023/01/16 01:05:19;;;;;;;41.20;10.60;;;;;;;-3.07;100.00;97774.88;106973;1275;22573;-69
2023/01/16 01:07:46;;;;;;;37.80;11.70;;;;;;;-3.07;100.00;97777.52;106286;1275;1002955;-70
2023/01/16 01:10:14;;;;;;;39.70;12.50;;;;;;;-3.06;100.00;97774.42;107013;1275;22773;-69
2023/01/16 01:12:41;;;;;;;39.10;12.00;;;;;;;-3.05;100.00;97772.25;106602;1275;1003642;-70
2023/01/16 01:15:09;;;;;;;26.50;9.20;;;;;;;-3.03;100.00;97769.80;106255;1275;1003008;-69
2023/01/16 01:17:36;;;;;;;25.60;9.30;;;;;;;-3.01;100.00;97766.29;106956;1275;22535;-69
2023/01/16 01:20:04;;;;;;;27.60;9.40;;;;;;;-2.99;100.00;97761.18;106310;1273;1002892;-68
2023/01/16 01:22:31;;;;;;;28.40;8.80;;;;;;;-2.99;100.00;97764.14;107048;1274;25612;-69
2023/01/16 01:24:59;;;;;;;25.60;8.60;;;;;;;-3.00;100.00;97766.16;107047;1273;22577;-69
2023/01/16 01:27:26;;;;;;;31.00;8.80;;;;;;;-3.01;100.00;97763.64;106269;1274;1002940;-69
2023/01/16 01:29:53;;;;;;;31.20;8.80;;;;;;;-3.02;100.00;97764.98;106988;1273;22572;-69
2023/01/16 01:32:20;;;;;;;39.70;11.10;;;;;;;-3.01;100.00;97762.45;107023;1273;26631;-70
2023/01/16 01:34:47;;;;;;;34.70;10.70;;;;;;;-3.00;100.00;97755.83;107081;1274;22520;-69
2023/01/16 01:37:15;;;;;;;35.90;10.60;;;;;;;-3.00;100.00;97750.52;107062;1274;24222;-70
2023/01/16 01:39:42;;;;;;;33.40;9.90;;;;;;;-3.01;100.00;97746.55;107035;1274;25452;-68
2023/01/16 01:45:04;;;;;;;27.10;9.20;;;;;;;-3.00;100.00;97739.92;107037;1274;24276;-70
2023/01/16 01:47:36;;;;;;;28.30;9.40;;;;;;;-3.00;100.00;97743.63;107142;1274;23124;-68
2023/01/16 01:50:12;;;;;;;27.30;8.90;;;;;;;-2.99;100.00;97740.55;107065;1274;22624;-69
2023/01/16 01:52:39;;;;;;;25.30;8.10;;;;;;;-2.99;100.00;97740.50;107127;1274;25300;-69
2023/01/16 01:55:07;;;;;;;25.60;9.10;;;;;;;-3.00;100.00;97746.23;107023;1274;24222;-69
2023/01/16 01:57:40;;;;;;;25.10;9.60;;;;;;;-3.00;100.00;97752.66;107061;1274;24238;-69
2023/01/16 02:00:15;;;;;;;24.00;7.90;;;;;;;-3.01;100.00;97753.17;107160;1254;25559;-69
2023/01/16 02:02:51;;;;;;;22.90;7.90;;;;;;;-3.01;100.00;97751.42;106871;1254;1003429;-69
2023/01/16 02:05:25;;;;;;;33.00;9.10;;;;;;;-2.99;100.00;97752.20;106579;1274;1003829;-69
2023/01/16 02:07:52;;;;;;;32.50;11.40;;;;;;;-2.99;100.00;97748.99;107523;1274;25437;-69
2023/01/16 02:10:26;;;;;;;34.70;9.80;;;;;;;-2.99;100.00;97755.34;106366;1274;1002970;-68
2023/01/16 02:12:54;;;;;;;31.20;10.50;;;;;;;-2.99;100.00;97754.98;107073;1274;25433;-68
2023/01/16 02:15:22;;;;;;;38.40;10.90;;;;;;;-2.98;100.00;97754.17;106246;1274;1002889;-70
2023/01/16 02:20:51;;;;;;;37.60;11.60;;;;;;;-2.97;100.00;97747.94;107085;1274;22523;-69
2023/01/16 02:23:48;;;;;;;39.90;9.70;;;;;;;-2.97;100.00;97744.88;107173;1274;22530;-69
2023/01/16 02:26:24;;;;;;;28.70;8.10;;;;;;;-2.95;100.00;97743.70;107018;1274;26615;-70
2023/01/16 02:29:04;;;;;;;38.00;10.30;;;;;;;-2.94;100.00;97749.58;106984;1274;22643;-69
2023/01/16 02:31:46;;;;;;;26.10;9.40;;;;;;;-2.94;100.00;97748.38;107063;1274;24218;-69
2023/01/16 02:34:25;;;;;;;26.60;9.00;;;;;;;-2.96;100.00;97748.85;106284;1253;1003769;-70
2023/01/16 02:37:20;;;;;;;28.00;9.40;;;;;;;-2.97;100.00;97757.08;106278;1273;1015886;-70
2023/01/16 02:39:58;;;;;;;25.40;8.00;;;;;;;-2.98;100.00;97746.23;106276;1274;1003739;-68
2023/01/16 02:42:35;;;;;;;32.50;9.60;;;;;;;-2.99;100.00;97753.52;106998;1274;22601;-71
2023/01/16 02:45:41;;;;;;;27.30;8.50;;;;;;;-3.00;100.00;97753.15;107005;1260;25316;-69
2023/01/16 02:48:34;;;;;;;44.20;11.20;;;;;;;-3.00;100.00;97746.77;105747;1282;1002616;-70
2023/01/16 06:22:42;;;;;;;46.70;15.90;;;;;;;-2.72;100.00;98645.83;104089;1304;1003394;-69
2023/01/16 06:25:09;;;;;;;42.60;15.10;;;;;;;-2.53;100.00;98672.71;106238;1287;188549;-69
2023/01/16 06:27:37;;;;;;;54.70;16.10;;;;;;;-2.48;100.00;98678.34;106422;1286;22484;-69
2023/01/16 06:30:08;;;;;;;39.90;14.50;;;;;;;-2.47;100.00;98675.45;106535;1286;23878;-69
2023/01/16 06:32:35;;;;;;;43.40;14.90;;;;;;;-2.47;100.00;98659.80;106439;1286;22552;-69
2023/01/16 06:35:03;;;;;;;51.90;13.50;;;;;;;-2.47;100.00;98641.54;105711;1287;1002987;-69
2023/01/16 06:37:30;;;;;;;56.60;16.30;;;;;;;-2.45;100.00;98618.08;106469;1286;22469;-70
2023/01/16 06:39:59;;;;;;;56.20;16.10;;;;;;;-2.42;100.00;98588.59;106828;1287;22797;-69
2023/01/16 06:42:29;;;;;;;43.30;15.70;;;;;;;-2.40;100.00;98549.93;106905;1286;22537;-68
2023/01/16 06:44:56;;;;;;;52.90;16.10;;;;;;;-2.38;100.00;98497.01;106700;1287;26647;-68
2023/01/16 06:47:23;;;;;;;50.40;16.60;;;;;;;-2.37;100.00;98442.23;107316;1279;22531;-67
2023/01/16 06:49:51;;;;;;;62.70;20.00;;;;;;;-2.37;100.00;98379.56;107321;1279;22622;-68
2023/01/16 06:52:18;;;;;;;47.50;15.60;;;;;;;-2.34;100.00;98330.44;107233;1279;22563;-70
2023/01/16 06:54:46;;;;;;;52.60;17.30;;;;;;;-2.33;100.00;98275.10;107327;1279;22531;-69
2023/01/16 06:57:14;;;;;;;49.70;16.20;;;;;;;-2.31;100.00;98214.02;107206;1279;24123;-68
2023/01/16 06:59:42;;;;;;;42.70;16.00;;;;;;;-2.26;100.00;98121.85;107254;1279;22524;-69
2023/01/16 07:02:09;;;;;;;52.00;18.00;;;;;;;-2.27;100.00;98020.77;107066;1279;23811;-68
2023/01/16 07:04:36;;;;;;;46.40;14.70;;;;;;;-2.27;100.00;97901.44;107067;1279;25779;-67
2023/01/16 07:07:04;;;;;;;49.60;15.70;;;;;;;-2.24;100.00;97768.12;106479;1279;1003406;-67
2023/01/16 07:09:32;;;;;;;46.80;16.90;;;;;;;-2.27;100.00;97641.11;107041;1279;25443;-68
2023/01/16 07:12:02;;;;;;;45.00;15.40;;;;;;;-2.25;100.00;97523.08;106983;1273;22488;-68
2023/01/16 07:22:51;;;;;;;40.00;16.20;;;;;;;-2.17;100.00;97163.98;106928;1276;22546;-70
2023/01/16 07:25:21;;;;;;;45.40;18.20;;;;;;;-2.16;100.00;97132.79;107145;1276;22496;-69
2023/01/16 07:27:49;;;;;;;49.20;17.20;;;;;;;-2.13;100.00;97086.25;107348;1272;24207;-68
2023/01/16 07:30:19;;;;;;;41.40;15.40;;;;;;;-2.09;100.00;97045.50;107373;1276;24352;-71
2023/01/16 07:32:46;;;;;;;49.30;17.70;;;;;;;-2.06;100.00;97006.95;107422;1276;22478;-71
2023/01/16 07:35:14;;;;;;;38.50;15.30;;;;;;;-2.03;100.00;96980.38;106736;1270;1003214;-69
2023/01/16 07:37:42;;;;;;;47.50;18.20;;;;;;;-2.00;100.00;96958.45;107254;1273;25522;-70
2023/01/16 07:40:10;;;;;;;48.70;18.40;;;;;;;-2.02;100.00;96942.27;107638;1270;22645;-70
2023/01/16 07:42:38;;;;;;;48.80;18.60;;;;;;;-2.01;100.00;96934.77;107353;1276;22483;-69
2023/01/16 07:45:07;;;;;;;49.70;18.80;;;;;;;-2.00;100.00;96924.59;107178;1275;22536;-68
2023/01/16 07:47:37;;;;;;;51.20;18.30;;;;;;;-2.00;100.00;96915.59;107156;1276;22648;-69
2023/01/16 07:50:05;;;;;;;59.30;19.70;;;;;;;-2.00;100.00;96909.73;106672;1276;1003262;-68
2023/01/16 07:52:32;;;;;;;49.00;20.20;;;;;;;-1.97;100.00;96903.98;106117;1276;1002962;-70
2023/01/16 07:54:59;;;;;;;46.00;17.90;;;;;;;-1.93;100.00;96899.98;107392;1276;24254;-71
2023/01/16 07:57:26;;;;;;;50.70;19.00;;;;;;;-1.89;100.00;96887.52;107431;1276;22545;-71
2023/01/16 07:59:56;;;;;;;56.80;19.00;;;;;;;-1.88;100.00;96879.65;107574;1276;22538;-70
2023/01/16 08:02:38;;;;;;;51.50;20.10;;;;;;;-1.86;100.00;96863.73;107177;1277;22559;-71
2023/01/16 08:05:11;;;;;;;47.00;17.10;;;;;;;-1.82;100.00;96864.01;106754;1277;1002289;-70
2023/01/16 08:07:38;;;;;;;56.60;19.30;;;;;;;-1.80;100.00;96861.39;107378;1277;22533;-69
2023/01/16 08:10:06;;;;;;;48.00;17.30;;;;;;;-1.78;100.00;96864.39;107548;1277;23801;-72
2023/01/16 08:12:34;;;;;;;51.40;18.90;;;;;;;-1.75;100.00;96862.45;107014;1276;1002925;-71
2023/01/16 08:15:02;;;;;;;45.20;16.10;;;;;;;-1.73;100.00;96857.98;106743;1276;1002583;-71
2023/01/16 08:17:29;;;;;;;53.30;18.10;;;;;;;-1.71;100.00;96852.84;107412;1276;24219;-71
2023/01/16 08:19:56;;;;;;;61.30;20.50;;;;;;;-1.69;100.00;96843.49;107604;1276;25390;-67
2023/01/16 08:22:24;;;;;;;52.40;20.30;;;;;;;-1.68;100.00;96838.42;107491;1275;22519;-72
2023/01/16 08:24:51;;;;;;;50.50;18.80;;;;;;;-1.66;100.00;96836.89;107274;1276;24197;-68
2023/01/16 08:27:19;;;;;;;55.10;20.20;;;;;;;-1.63;100.00;96828.63;107195;1269;24272;-66
2023/01/16 08:29:46;;;;;;;50.80;19.60;;;;;;;-1.59;100.00;96819.84;106415;1276;1003497;-78
2023/01/16 08:32:14;;;;;;;45.50;17.30;;;;;;;-1.55;100.00;96815.72;107931;1274;22527;-79
2023/01/16 08:34:42;;;;;;;52.20;19.40;;;;;;;-1.52;100.00;96812.58;107570;1275;22572;-71
2023/01/16 08:37:10;;;;;;;46.90;18.90;;;;;;;-1.50;100.00;96811.71;107135;1275;24187;-70
2023/01/16 08:39:37;;;;;;;52.40;18.20;;;;;;;-1.49;100.00;96803.29;107310;1276;25418;-70
2023/01/16 08:53:09;;;;;;;46.10;18.90;;;;;;;-1.43;100.00;96776.88;106677;1273;1002934;-76
2023/01/16 08:55:38;;;;;;;45.70;18.40;;;;;;;-1.39;100.00;96782.16;107719;1277;22495;-76
2023/01/16 08:58:07;;;;;;;44.30;18.80;;;;;;;-1.35;100.00;96780.95;107258;1276;25471;-68
2023/01/16 09:00:34;;;;;;;48.90;19.50;;;;;;;-1.29;100.00;96772.52;107034;1276;25248;-69
2023/01/16 09:03:03;;;;;;;51.80;20.30;;;;;;;-1.25;100.00;96772.06;107090;1273;22752;-69
2023/01/16 09:05:31;;;;;;;50.00;20.30;;;;;;;-1.23;100.00;96769.90;107091;1276;25498;-76
2023/01/16 09:07:58;;;;;;;56.90;20.80;;;;;;;-1.23;100.00;96772.95;106880;1276;1015757;-76
2023/01/16 09:10:25;;;;;;;47.30;19.90;;;;;;;-1.22;100.00;96773.95;107890;1276;22541;-70
2023/01/16 09:15:38;;;;;;;57.00;21.20;;;;;;;-1.24;100.00;96768.91;107194;1276;23413;-78
2023/01/16 09:18:06;;;;;;;52.50;20.90;;;;;;;-1.22;100.00;96777.05;107873;1276;25268;-78
2023/01/16 09:20:33;;;;;;;45.00;18.80;;;;;;;-1.21;100.00;96772.83;107582;1276;23857;-75
2023/01/16 09:23:02;;;;;;;54.60;20.60;;;;;;;-1.19;100.00;96772.91;107542;1276;22527;-69
2023/01/16 09:25:30;;;;;;;44.60;17.70;;;;;;;-1.17;100.00;96773.72;106862;1275;22650;-65
2023/01/16 09:27:58;;;;;;;54.20;19.80;;;;;;;-1.16;100.00;96776.27;106171;1275;1003649;-67
2023/01/16 09:30:27;;;;;;;50.90;19.90;;;;;;;-1.16;100.00;96779.09;106996;1270;24458;-68
2023/01/16 09:32:54;;;;;;;61.00;24.30;;;;;;;-1.16;100.00;96781.70;106845;1276;22534;-67
2023/01/16 09:35:21;;;;;;;47.40;22.00;;;;;;;-1.12;100.00;96783.48;107514;1276;24272;-69
2023/01/16 09:37:48;;;;;;;51.50;22.50;;;;;;;-1.11;100.00;96791.45;106318;1275;1002835;-67
2023/01/16 09:40:20;;;;;;;55.60;24.40;;;;;;;-1.11;100.00;96795.00;107543;1276;22740;-70
2023/01/16 09:43:39;;;;;;;49.40;21.30;;;;;;;-1.09;100.00;96793.23;107180;1276;24258;-69
2023/01/16 09:46:10;;;;;;;50.70;19.90;;;;;;;-1.05;100.00;96777.56;107144;1275;22528;-68
2023/01/16 09:49:12;;;;;;;46.10;20.20;;;;;;;-1.02;100.00;96794.17;106928;1276;22543;-67
2023/01/16 09:51:41;;;;;;;47.70;21.50;;;;;;;-0.98;100.00;96786.45;107423;1270;23849;-79
2023/01/16 09:59:51;;;;;;;38.10;18.90;;;;;;;-0.91;100.00;96795.41;106976;1275;22533;-70
2023/01/16 10:02:24;;;;;;;45.00;19.40;;;;;;;-0.90;100.00;96802.02;106956;1270;26520;-70
2023/01/16 10:04:52;;;;;;;56.60;23.30;;;;;;;-0.88;100.00;96804.69;106962;1272;22644;-68
2023/01/16 10:07:44;;;;;;;47.50;20.20;;;;;;;-0.85;100.00;96808.79;107049;1270;25402;-67
2023/01/16 10:10:52;;;;;;;45.70;19.20;;;;;;;-0.86;100.00;96804.98;106637;1270;25429;-69
2023/01/16 10:13:33;;;;;;;44.40;18.50;;;;;;;-0.88;100.00;96804.03;106870;1270;22540;-70
2023/01/16 10:16:58;;;;;;;49.50;20.40;;;;;;;-0.91;100.00;96815.13;106729;1270;22732;-68
2023/01/16 10:20:00;;;;;;;64.80;22.00;;;;;;;-0.93;100.00;96807.66;106657;1280;22536;-68
2023/01/16 10:22:36;;;;;;;48.30;18.70;;;;;;;-0.96;100.00;96819.25;106743;1282;25319;-67
2023/01/16 10:25:55;;;;;;;47.00;20.00;;;;;;;-0.94;100.00;96830.70;107346;1270;22533;-70
2023/01/16 10:28:27;;;;;;;45.60;18.40;;;;;;;-0.88;100.00;96812.02;107211;1269;25265;-68
2023/01/16 10:31:18;;;;;;;55.40;21.00;;;;;;;-0.84;100.00;96825.20;107445;1270;23741;-76
2023/01/16 10:33:55;;;;;;;59.50;22.00;;;;;;;-0.87;100.00;96832.17;108175;1270;25293;-74
2023/01/16 10:36:35;;;;;;;47.70;19.20;;;;;;;-0.89;100.00;96842.66;107929;1275;22553;-68
2023/01/16 10:39:02;;;;;;;54.00;20.30;;;;;;;-0.90;100.00;96852.13;107444;1275;23822;-77
2023/01/16 10:49:59;;;;;;;50.90;20.90;;;;;;;-0.83;100.00;96862.45;106973;1270;22620;-69
2023/01/16 10:52:27;;;;;;;46.90;20.90;;;;;;;-0.82;100.00;96878.54;106526;1270;1003120;-77
2023/01/16 10:54:55;;;;;;;53.80;19.30;;;;;;;-0.81;100.00;96893.30;107017;1274;22594;-69
2023/01/16 10:57:25;;;;;;;52.00;20.50;;;;;;;-0.81;100.00;96901.21;107831;1270;22691;-79
2023/01/16 10:59:56;;;;;;;47.60;19.40;;;;;;;-0.81;100.00;96907.22;107301;1261;22528;-79
2023/01/16 11:02:33;;;;;;;51.20;19.60;;;;;;;-0.83;100.00;96915.91;106619;1275;1003719;-69
2023/01/16 11:05:01;;;;;;;49.40;21.30;;;;;;;-0.85;100.00;96928.77;107547;1274;22488;-78
2023/01/16 11:07:29;;;;;;;45.20;20.00;;;;;;;-0.87;100.00;96940.60;107885;1276;25261;-78
2023/01/16 11:09:57;;;;;;;45.90;18.50;;;;;;;-0.86;100.00;96955.52;107645;1275;22824;-78
2023/01/16 11:18:29;;;;;;;43.30;19.00;;;;;;;-0.76;100.00;96970.53;107247;1267;1003070;-78
2023/01/16 11:20:58;;;;;;;39.90;16.80;;;;;;;-0.72;100.00;96978.05;108121;1274;24925;-78
2023/01/16 11:23:39;;;;;;;37.70;17.40;;;;;;;-0.71;100.00;96999.78;108028;1275;22539;-77
2023/01/16 11:26:10;;;;;;;37.10;17.90;;;;;;;-0.70;100.00;97007.87;107933;1275;22520;-79
2023/01/16 11:28:38;;;;;;;38.40;17.30;;;;;;;-0.69;100.00;97028.40;108014;1275;22523;-77
2023/01/16 11:31:23;;;;;;;40.60;18.50;;;;;;;-0.67;100.00;97045.73;107913;1275;24180;-78
2023/01/16 11:34:03;;;;;;;40.00;18.70;;;;;;;-0.66;100.00;97056.17;107997;1273;22516;-77
2023/01/16 11:36:34;;;;;;;43.20;18.80;;;;;;;-0.65;100.00;97069.58;107137;1275;1003059;-68
2023/01/16 11:39:02;;;;;;;47.70;19.60;;;;;;;-0.65;100.00;97083.31;106166;1270;1003808;-67
2023/01/16 11:41:35;;;;;;;40.20;19.10;;;;;;;-0.65;100.00;97098.17;106172;1274;1003018;-68
2023/01/16 11:46:57;;;;;;;39.20;18.90;;;;;;;-0.70;100.00;97117.39;107228;1254;25473;-67
2023/01/16 11:49:34;;;;;;;42.80;18.10;;;;;;;-0.71;100.00;97138.58;107185;1274;22539;-67
2023/01/16 11:52:04;;;;;;;51.40;20.80;;;;;;;-0.71;100.00;97148.12;107369;1275;23864;-68
2023/01/16 11:54:33;;;;;;;41.70;19.20;;;;;;;-0.71;100.00;97168.65;106864;1274;22540;-68
2023/01/16 11:57:15;;;;;;;38.00;17.60;;;;;;;-0.74;100.00;97188.59;107103;1275;22468;-68
2023/01/16 12:00:05;;;;;;;39.60;18.10;;;;;;;-0.77;100.00;97206.41;107077;1267;25450;-67
2023/01/16 12:02:44;;;;;;;40.70;19.10;;;;;;;-0.75;100.00;97220.38;107119;1274;22554;-77
2023/01/16 12:05:54;;;;;;;41.90;18.80;;;;;;;-0.74;100.00;97236.13;107156;1275;25410;-68
2023/01/16 12:09:08;;;;;;;37.20;15.50;;;;;;;-0.75;100.00;97241.94;106943;1274;22690;-69
2023/01/16 12:11:53;;;;;;;39.20;15.30;;;;;;;-0.75;100.00;97257.27;106877;1275;25284;-68
2023/01/16 12:14:33;;;;;;;36.90;15.80;;;;;;;-0.79;100.00;97279.45;106858;1270;22533;-69
2023/01/16 12:17:19;;;;;;;37.60;14.90;;;;;;;-0.82;100.00;97299.09;106919;1273;22527;-69
2023/01/16 12:20:04;;;;;;;28.80;13.40;;;;;;;-0.83;100.00;97313.52;106820;1273;22528;-68
2023/01/16 12:22:50;;;;;;;32.90;13.60;;;;;;;-0.83;100.00;97330.52;106864;1267;22540;-67
2023/01/16 12:25:26;;;;;;;28.50;13.00;;;;;;;-0.85;100.00;97344.52;106961;1275;22527;-75
2023/01/16 12:28:31;;;;;;;29.10;12.40;;;;;;;-0.87;100.00;97359.80;108137;1267;23104;-76
2023/01/16 12:31:21;;;;;;;32.10;12.40;;;;;;;-0.90;100.00;97364.14;107797;1272;24778;-68
2023/01/16 12:34:00;;;;;;;27.30;12.00;;;;;;;-0.91;100.00;97386.59;106989;1274;25547;-67
2023/01/16 12:36:46;;;;;;;29.80;14.40;;;;;;;-0.90;100.00;97402.21;106954;1274;22623;-68
2023/01/16 12:39:38;;;;;;;30.70;12.10;;;;;;;-0.87;100.00;97408.58;106946;1274;22535;-66
2023/01/16 12:46:15;;;;;;;28.50;12.70;;;;;;;-0.88;100.00;97419.29;106397;1275;25316;-66
2023/01/16 12:49:27;;;;;;;28.40;11.30;;;;;;;-0.91;100.00;97437.98;106993;1273;24356;-69
2023/01/16 12:52:30;;;;;;;23.70;10.80;;;;;;;-0.94;100.00;97448.04;107217;1275;25488;-77
2023/01/16 12:55:15;;;;;;;25.00;10.60;;;;;;;-0.96;100.00;97459.38;107834;1275;22534;-80
2023/01/16 12:58:06;;;;;;;25.40;11.30;;;;;;;-0.97;100.00;97478.63;108036;1267;25663;-77
2023/01/16 13:00:40;;;;;;;28.70;11.60;;;;;;;-0.97;100.00;97486.72;107421;1267;1003672;-78
2023/01/16 13:03:27;;;;;;;32.10;12.00;;;;;;;-0.96;100.00;97502.58;107512;1272;1003117;-78
2023/01/16 13:05:56;;;;;;;25.80;12.20;;;;;;;-0.96;100.00;97506.13;107175;1275;1003736;-79
2023/01/16 13:08:28;;;;;;;27.80;12.80;;;;;;;-0.96;100.00;97525.55;107891;1275;25358;-79
2023/01/16 13:13:55;;;;;;;26.50;10.90;;;;;;;-0.97;100.00;97539.81;107902;1274;23814;-78
2023/01/16 13:16:34;;;;;;;25.60;10.40;;;;;;;-0.99;100.00;97552.37;107370;1275;1002603;-79
2023/01/16 13:19:23;;;;;;;25.70;10.30;;;;;;;-0.98;100.00;97567.11;108150;1274;22472;-77
2023/01/16 13:22:00;;;;;;;25.70;10.90;;;;;;;-0.95;100.00;97568.80;108010;1274;22482;-76
2023/01/16 13:24:30;;;;;;;26.00;10.80;;;;;;;-0.94;100.00;97574.50;107212;1270;22628;-77
2023/01/16 13:27:01;;;;;;;26.50;10.90;;;;;;;-0.93;100.00;97587.21;107379;1270;22543;-78
2023/01/16 13:29:36;;;;;;;27.60;10.20;;;;;;;-0.95;100.00;97594.27;106555;1270;1003181;-77
2023/01/16 13:32:18;;;;;;;28.70;10.90;;;;;;;-0.95;100.00;97599.77;106646;1269;1002900;-78
2023/01/16 13:34:54;;;;;;;24.70;9.90;;;;;;;-0.97;100.00;97604.51;107032;1260;23015;-69
2023/01/16 13:37:56;;;;;;;26.90;12.20;;;;;;;-0.98;100.00;97617.36;107128;1270;22520;-67
2023/01/16 13:40:34;;;;;;;26.50;10.70;;;;;;;-1.01;100.00;97614.63;106935;1274;24381;-67
2023/01/16 13:45:58;;;;;;;22.80;9.90;;;;;;;-1.01;100.00;97629.02;107588;1273;24254;-78
2023/01/16 13:48:31;;;;;;;27.10;11.10;;;;;;;-0.99;100.00;97639.60;107944;1271;22575;-77
2023/01/16 13:51:00;;;;;;;23.10;10.70;;;;;;;-0.99;100.00;97636.36;107822;1270;22530;-78
2023/01/16 13:53:31;;;;;;;29.00;11.30;;;;;;;-0.99;100.00;97638.81;106753;1270;1003424;-78
2023/01/16 13:56:22;;;;;;;27.10;11.30;;;;;;;-1.00;100.00;97639.36;107231;1274;25201;-78
2023/01/16 13:59:02;;;;;;;30.50;12.90;;;;;;;-1.01;100.00;97634.65;107154;1270;23304;-78
2023/01/16 14:01:31;;;;;;;26.50;11.20;;;;;;;-1.02;100.00;97638.92;106549;1267;1003498;-76
2023/01/16 14:04:31;;;;;;;31.20;13.60;;;;;;;-1.02;100.00;97645.16;107284;1275;22996;-68
2023/01/16 14:10:15;;;;;;;28.00;14.10;;;;;;;-1.00;100.00;97636.34;107100;1275;22746;-70
2023/01/16 14:13:04;;;;;;;37.00;15.90;;;;;;;-1.00;100.00;97635.11;106251;1269;1003833;-67
2023/01/16 18:23:02;;;;;;;18.00;7.80;;;;;;;-0.45;100.00;98472.92;104765;1304;1002344;-79
2023/01/16 18:25:31;;;;;;;17.50;7.60;;;;;;;-0.28;100.00;98495.42;107009;1287;184579;-78
2023/01/16 18:27:58;;;;;;;16.60;6.90;;;;;;;-0.24;100.00;98503.07;107323;1287;24305;-79
2023/01/16 18:30:27;;;;;;;17.40;7.10;;;;;;;-0.22;100.00;98514.39;107237;1287;22669;-75
2023/01/16 18:32:54;;;;;;;20.20;8.40;;;;;;;-0.21;100.00;98519.73;107184;1287;24401;-80
2023/01/16 18:35:23;;;;;;;18.80;7.40;;;;;;;-0.19;100.00;98523.84;107329;1287;24043;-77
2023/01/16 19:03:05;;;;;;;12.10;6.10;;;;;;;-0.01;100.00;98281.04;107258;1287;25262;-79
2023/01/16 19:05:35;;;;;;;16.80;6.50;;;;;;;-0.00;100.00;98245.24;106585;1287;1003700;-76
2023/01/16 19:08:04;;;;;;;16.60;7.20;;;;;;;0.00;100.00;98198.11;107267;1286;26528;-78
2023/01/16 19:10:33;;;;;;;14.90;6.30;;;;;;;0.02;100.00;98156.15;107552;1287;24163;-79
2023/01/16 19:13:05;;;;;;;18.80;7.00;;;;;;;0.02;100.00;98112.13;107491;1287;22542;-78
2023/01/16 19:15:34;;;;;;;18.30;7.50;;;;;;;0.03;100.00;98075.73;107445;1287;22135;-78
2023/01/16 19:18:04;;;;;;;16.10;6.80;;;;;;;0.04;100.00;98040.02;106622;1287;1002527;-78
2023/01/16 19:20:32;;;;;;;15.00;6.90;;;;;;;0.06;100.00;98004.93;107647;1285;25447;-78
2023/01/16 19:23:02;;;;;;;16.60;7.50;;;;;;;0.07;100.00;97967.98;107608;1285;25463;-78
2023/01/16 19:25:30;;;;;;;19.50;7.60;;;;;;;0.08;100.00;97930.02;107548;1285;22681;-77
2023/01/16 19:27:58;;;;;;;16.80;6.60;;;;;;;0.07;100.00;97896.04;106770;1285;1003140;-78
2023/01/16 19:30:25;;;;;;;15.60;6.80;;;;;;;0.08;100.00;97861.02;107603;1285;25275;-75
2023/01/16 19:32:52;;;;;;;18.00;6.50;;;;;;;0.10;100.00;97824.69;106891;1285;1005022;-77
2023/01/16 19:35:20;;;;;;;13.20;6.00;;;;;;;0.11;100.00;97777.45;107718;1269;22515;-78
2023/01/16 19:37:50;;;;;;;16.60;6.30;;;;;;;0.13;100.00;97738.69;106878;1285;1002351;-77
2023/01/16 19:40:18;;;;;;;12.20;5.40;;;;;;;0.13;100.00;97701.98;107605;1285;25323;-77
2023/01/16 19:48:23;;;;;;;14.90;5.90;;;;;;;0.12;100.00;97563.69;107537;1285;23722;-78
2023/01/16 19:50:50;;;;;;;11.90;5.40;;;;;;;0.11;100.00;97553.40;106841;1285;1003114;-78
2023/01/16 19:53:18;;;;;;;16.20;6.10;;;;;;;0.10;100.00;97545.63;107543;1285;25287;-77
2023/01/16 19:55:52;;;;;;;13.60;5.90;;;;;;;0.11;100.00;97530.48;107526;1285;24234;-78
2023/01/16 19:58:20;;;;;;;11.00;5.30;;;;;;;0.11;100.00;97520.38;107618;1285;22623;-75
2023/01/16 20:00:48;;;;;;;11.00;5.20;;;;;;;0.12;100.00;97516.05;106785;1285;1003141;-76
2023/01/16 20:03:30;;;;;;;13.50;5.70;;;;;;;0.13;100.00;97496.13;107562;1285;26531;-77
2023/01/16 20:05:59;;;;;;;10.30;5.20;;;;;;;0.14;100.00;97496.33;107008;1285;1003418;-77
2023/01/16 20:08:26;;;;;;;14.20;5.70;;;;;;;0.14;100.00;97491.02;106742;1285;1002623;-77
2023/01/16 20:10:54;;;;;;;11.40;5.20;;;;;;;0.14;100.00;97501.48;106822;1285;1002861;-78
2023/01/16 20:13:22;;;;;;;13.10;4.90;;;;;;;0.14;100.00;97515.27;107519;1285;25484;-78
2023/01/16 20:15:50;;;;;;;16.50;5.20;;;;;;;0.16;100.00;97513.10;107552;1285;26677;-78
2023/01/16 20:18:19;;;;;;;14.00;6.00;;;;;;;0.18;100.00;97507.38;107462;1285;25256;-78
2023/01/16 20:20:49;;;;;;;12.50;5.10;;;;;;;0.21;100.00;97509.48;107561;1285;22546;-79
2023/01/16 20:23:18;;;;;;;12.30;6.00;;;;;;;0.21;100.00;97525.92;107510;1285;23854;-77
2023/01/16 20:25:46;;;;;;;12.60;5.60;;;;;;;0.23;100.00;97538.65;106813;1285;1003838;-78
2023/01/16 20:28:14;;;;;;;15.40;6.00;;;;;;;0.24;100.00;97546.20;107400;1285;26637;-78
2023/01/16 20:30:44;;;;;;;14.30;5.60;;;;;;;0.24;100.00;97558.23;107644;1286;23742;-77
2023/01/16 20:33:14;;;;;;;15.60;6.10;;;;;;;0.24;100.00;97567.39;107446;1285;25466;-78
2023/01/16 20:35:43;;;;;;;12.70;5.90;;;;;;;0.25;100.00;97579.00;107516;1285;25469;-78
2023/01/16 20:38:10;;;;;;;15.60;5.70;;;;;;;0.26;100.00;97595.03;107508;1285;24122;-77
2023/01/16 20:40:42;;;;;;;12.50;5.90;;;;;;;0.27;100.00;97605.36;107518;1285;22577;-77
2023/01/16 20:45:57;;;;;;;14.80;6.50;;;;;;;0.30;100.00;97627.13;107498;1285;26643;-76